Home   Weather   Kansas   Past weeks
Flag for USA

Past Weather in Kansas, Kansas, USA — June 2022

Currently: 92 °F. Sunny. (Weather station: Hutchinson Municipal Airport, USA). See more current weather

June 2022 Weather in Kansas — Graph

°F

High & Low Weather Summary for June 2022

 TemperatureHumidityPressure
High103 °F (Jun 24, 4:52 pm)100% (Jun 1, 9:52 pm)30.34 "Hg (Jun 1, 9:52 pm)
Low48 °F (Jun 2, 2:58 am)22% (Jun 24, 5:52 pm)29.54 "Hg (Jun 12, 7:52 pm)
Average76 °F67%29.90 "Hg
* Reported Jun 1 12:01 am — Jun 30 11:52 pm, Kansas. Weather by CustomWeather, © 2022

Note: Actual official high and low records may vary slightly from our data, if they occured in-between our weather recording intervals... More about our weather records

Kansas Weather History for June 1, 2022

Scroll right to see more
 ConditionsComfort  
Time TempWeatherWind HumidityBarometerVisibility
12:01 am
Wed, Jun 1
66 °FThundershowers. Overcast.10 mph96%29.96 "Hg10 mi
12:52 am64 °FPassing clouds.14 mph94%29.91 "Hg10 mi
1:52 am63 °FPassing clouds.13 mph90%29.92 "Hg10 mi
2:52 am63 °FClear.14 mph84%29.90 "Hg10 mi
3:52 am63 °FClear.20 mph81%29.93 "Hg10 mi
4:52 am62 °FClear.13 mph83%29.96 "Hg10 mi
5:52 am61 °FMostly cloudy.15 mph87%29.98 "Hg10 mi
6:52 am61 °FMostly cloudy.13 mph83%30.01 "Hg10 mi
7:52 am60 °FOvercast.15 mph80%30.03 "Hg10 mi
8:40 am58 °FThunderstorms. Fog.12 mph87%30.10 "Hg5 mi
9:08 am57 °FRain. Fog.8 mph93%30.10 "Hg3 mi
9:52 am57 °FMore clouds than sun.10 mph90%30.06 "Hg10 mi
10:52 am56 °FRain. Fog.12 mph90%30.06 "Hg3 mi
11:52 am58 °FOvercast.7 mph87%30.10 "Hg10 mi
12:52 pm59 °FOvercast.7 mph87%30.09 "Hg10 mi
1:52 pm57 °FLight rain. Fog.12 mph87%30.12 "Hg5 mi
2:52 pm59 °FMostly cloudy.10 mph87%30.09 "Hg10 mi
3:52 pm59 °FOvercast.8 mph84%30.09 "Hg10 mi
4:52 pm61 °FMostly cloudy.9 mph81%30.07 "Hg10 mi
5:52 pm61 °FOvercast.5 mph78%30.06 "Hg10 mi
7:52 pm61 °FSunny.6 mph78%30.03 "Hg10 mi
8:52 pm57 °FPassing clouds.3 mph90%30.05 "Hg10 mi
9:52 pm52 °FClear.5 mph100%30.06 "Hg10 mi
10:52 pm53 °FClear.3 mph96%30.09 "Hg10 mi
11:40 pm50 °FFog.No wind100%30.12 "Hg1 mi
Weather by CustomWeather, © 2022

See weather overview